Armstrong, Texas
Current Conditions -  °F | °C
As of 5:35 AM on Friday 24 Oct 2014 (Local Time) from KBKS Reporting Station
Clear Clear  
Wind Chill: 62°   Ceiling: Unl
Heat Index: 62°   Visibility: 7mi
Dew Point: 61°   Wind: 3mph
Humidity: 97%   Direction: 350°N
Pressure: 30.09"   Gusts: NA
Location:  26.92°N, 97.79°W
Report Text: KBKS 241035Z AUTO 35003KT 7SM CLR 17/16 A3009 RMK AO1 T01650160
Loading
Personal Weather Stations






























Interactive Weather Map New forecast layout! Learn more

10-Day Weather Forecast

Advertisements
Track Severe Weather on mobile